Time;durP1;ratioP1;P1;durP2;ratioP2;P2;SDS_P1;SDS_P2;PMS_P1;PMS_P2;Temp;Humidity;BMP_temperature;BMP_pressure;BME280_temperature;BME280_humidity;BME280_pressure;Samples;Min_cycle;Max_cycle;Signal;HPM_P1;HPM_P2
2021/04/01 00:00:02;;;;;;;6.38;3.22;;;14.00;48.80;;;;;;5071988;28;20028;-75
2021/04/01 00:02:30;;;;;;;9.30;3.70;;;14.00;48.70;;;;;;5074910;28;20104;-75
2021/04/01 00:04:56;;;;;;;7.93;4.70;;;13.90;48.90;;;;;;5074521;28;20020;-75
2021/04/01 00:07:22;;;;;;;20.77;7.88;;;13.90;48.80;;;;;;5066178;28;20425;-76
2021/04/01 00:09:49;;;;;;;9.30;5.40;;;13.90;48.80;;;;;;5054705;28;20461;-76
2021/04/01 00:12:15;;;;;;;14.77;8.90;;;13.90;49.00;;;;;;5054707;28;20025;-75
2021/04/01 00:14:41;;;;;;;24.27;10.65;;;13.80;49.20;;;;;;5054723;28;20036;-75
2021/04/01 00:17:08;;;;;;;16.90;8.15;;;13.80;49.40;;;;;;5054433;28;20025;-75
2021/04/01 00:19:34;;;;;;;12.50;6.50;;;13.80;49.40;;;;;;5055515;28;20029;-76
2021/04/01 00:22:00;;;;;;;13.93;4.53;;;13.80;49.30;;;;;;5062117;28;20036;-76
2021/04/01 00:24:26;;;;;;;12.55;6.03;;;13.70;49.60;;;;;;5052905;28;20025;-74
2021/04/01 00:26:52;;;;;;;14.73;8.07;;;13.70;49.70;;;;;;5054194;28;20029;-75
2021/04/01 00:29:18;;;;;;;25.63;11.82;;;13.70;50.00;;;;;;5054311;28;20484;-75
2021/04/01 00:31:44;;;;;;;19.00;9.75;;;13.70;50.40;;;;;;5054500;28;20028;-75
2021/04/01 00:34:10;;;;;;;20.33;8.65;;;13.60;50.50;;;;;;5069233;28;20363;-75
2021/04/01 00:36:35;;;;;;;24.17;11.82;;;13.60;50.70;;;;;;5054046;28;20473;-74
2021/04/01 00:39:01;;;;;;;16.10;9.20;;;13.60;50.80;;;;;;5057548;28;20033;-76
2021/04/01 00:41:27;;;;;;;22.25;9.73;;;13.60;50.70;;;;;;5068548;28;20040;-75
2021/04/01 00:43:53;;;;;;;22.70;11.35;;;13.50;50.80;;;;;;5072754;28;20056;-75
2021/04/01 00:46:18;;;;;;;34.63;14.98;;;13.50;51.10;;;;;;5054020;28;20403;-75
2021/04/01 00:48:44;;;;;;;41.85;20.92;;;13.50;50.90;;;;;;5064381;28;20512;-75
2021/04/01 00:51:10;;;;;;;33.75;16.33;;;13.50;51.00;;;;;;5068254;28;20048;-75
2021/04/01 00:53:36;;;;;;;32.03;16.77;;;13.40;50.80;;;;;;5052940;28;20029;-75
2021/04/01 00:56:02;;;;;;;25.58;13.00;;;13.40;50.70;;;;;;5052744;28;20494;-75
2021/04/01 00:58:28;;;;;;;16.70;7.85;;;13.40;50.70;;;;;;5053520;28;20032;-75
2021/04/01 01:01:07;;;;;;;8.35;4.30;;;13.30;50.80;;;;;;5053716;28;20025;-76
2021/04/01 01:03:33;;;;;;;8.95;4.30;;;13.30;50.90;;;;;;5067078;28;20469;-74
2021/04/01 01:05:59;;;;;;;15.90;7.07;;;13.30;50.70;;;;;;5072454;28;20201;-76
2021/04/01 01:08:24;;;;;;;20.33;9.60;;;13.30;51.00;;;;;;5072967;28;20020;-75
2021/04/01 01:10:50;;;;;;;19.73;10.18;;;13.20;51.40;;;;;;5056437;28;20080;-75
2021/04/01 01:13:16;;;;;;;20.20;9.40;;;13.20;51.50;;;;;;5053505;28;20390;-75
2021/04/01 01:15:42;;;;;;;13.02;7.20;;;13.20;51.50;;;;;;5052012;28;20528;-75
2021/04/01 01:18:08;;;;;;;6.97;4.45;;;13.10;51.30;;;;;;5056168;28;20021;-75
2021/04/01 01:20:34;;;;;;;9.18;4.45;;;13.10;51.20;;;;;;5072077;28;20031;-75
2021/04/01 01:23:06;;;;;;;7.10;3.15;;;13.10;51.40;;;;;;5072870;28;20078;-75
2021/04/01 01:25:32;;;;;;;10.95;4.07;;;13.00;51.40;;;;;;5055150;28;20032;-75
2021/04/01 01:27:57;;;;;;;6.72;3.30;;;13.00;51.50;;;;;;5053224;28;20052;-75
2021/04/01 01:30:23;;;;;;;5.57;3.20;;;13.00;51.40;;;;;;5051818;28;20102;-75
2021/04/01 01:32:58;;;;;;;5.07;3.13;;;13.00;51.50;;;;;;5051938;28;20104;-75
2021/04/01 01:35:26;;;;;;;5.38;3.25;;;12.90;51.60;;;;;;5053250;28;20014;-75
2021/04/01 01:37:59;;;;;;;6.85;2.95;;;12.90;51.50;;;;;;5052908;28;20036;-75
2021/04/01 01:40:28;;;;;;;6.03;3.60;;;12.90;51.60;;;;;;5052811;28;20071;-75
2021/04/01 01:42:56;;;;;;;5.40;3.22;;;12.90;51.80;;;;;;5057978;28;20118;-75
2021/04/01 01:45:22;;;;;;;11.93;5.25;;;12.90;51.90;;;;;;5072802;28;20020;-75
2021/04/01 01:47:49;;;;;;;10.55;5.80;;;12.90;52.20;;;;;;5072449;28;20027;-75
2021/04/01 01:50:16;;;;;;;9.40;4.95;;;12.80;52.60;;;;;;5072538;28;20615;-76
2021/04/01 01:52:43;;;;;;;10.02;4.63;;;12.80;52.60;;;;;;5072395;28;20070;-75
2021/04/01 01:55:10;;;;;;;11.85;4.93;;;12.80;52.40;;;;;;5059771;28;20025;-76
2021/04/01 01:57:37;;;;;;;10.55;4.47;;;12.80;52.40;;;;;;5071020;28;20024;-75
2021/04/01 02:00:09;;;;;;;6.47;3.88;;;12.70;52.50;;;;;;5067291;28;20119;-75
2021/04/01 02:02:37;;;;;;;12.32;5.78;;;12.70;52.70;;;;;;5052563;28;20017;-75
2021/04/01 02:05:05;;;;;;;10.20;5.60;;;12.70;52.80;;;;;;5052472;28;20033;-75
2021/04/01 02:07:30;;;;;;;11.55;5.35;;;12.70;52.80;;;;;;5051012;28;20498;-75
2021/04/01 02:09:56;;;;;;;8.68;4.25;;;12.60;52.60;;;;;;5051787;28;20143;-76
2021/04/01 02:12:22;;;;;;;7.18;3.95;;;12.60;52.70;;;;;;5052407;28;20017;-75
2021/04/01 02:14:47;;;;;;;15.68;6.22;;;12.60;52.70;;;;;;5052100;28;20025;-75
2021/04/01 02:17:24;;;;;;;7.28;4.78;;;12.60;53.00;;;;;;5052700;28;20029;-75
2021/04/01 02:19:56;;;;;;;10.68;5.05;;;12.60;53.10;;;;;;5066617;28;20032;-75
2021/04/01 02:22:22;;;;;;;15.07;4.95;;;12.60;53.30;;;;;;5072005;28;20115;-75
2021/04/01 02:24:48;;;;;;;13.82;5.93;;;12.50;53.20;;;;;;5052439;28;20422;-75
2021/04/01 02:27:14;;;;;;;13.40;5.53;;;12.50;53.10;;;;;;5053871;28;20100;-75
2021/04/01 02:29:40;;;;;;;11.57;5.55;;;12.50;53.40;;;;;;5071218;28;20473;-75
2021/04/01 02:32:06;;;;;;;11.90;5.88;;;12.50;53.30;;;;;;5067696;28;20094;-75
2021/04/01 02:34:32;;;;;;;10.52;6.03;;;12.50;53.40;;;;;;5067379;28;20486;-75
2021/04/01 02:36:58;;;;;;;7.15;4.72;;;12.40;53.30;;;;;;5072147;28;20036;-75
2021/04/01 02:39:24;;;;;;;10.23;5.53;;;12.40;53.20;;;;;;5070519;28;20053;-75
2021/04/01 02:41:50;;;;;;;12.82;4.70;;;12.40;53.40;;;;;;5058220;28;20060;-75
2021/04/01 02:44:15;;;;;;;13.82;3.95;;;12.40;53.40;;;;;;5051981;28;20044;-75
2021/04/01 02:46:41;;;;;;;11.52;4.93;;;12.40;53.60;;;;;;5052031;28;20079;-75
2021/04/01 02:49:07;;;;;;;8.05;4.30;;;12.40;53.90;;;;;;5055439;28;20390;-75
2021/04/01 02:51:33;;;;;;;6.38;3.58;;;12.40;54.00;;;;;;5068098;28;20140;-75
2021/04/01 02:53:58;;;;;;;6.43;3.72;;;12.30;53.80;;;;;;5071147;28;20422;-74
2021/04/01 02:56:24;;;;;;;10.15;3.80;;;12.30;53.70;;;;;;5071092;28;20086;-75
2021/04/01 02:58:50;;;;;;;6.20;3.60;;;12.30;53.60;;;;;;5071607;28;20470;-75
2021/04/01 03:01:16;;;;;;;8.63;3.75;;;12.30;53.80;;;;;;5072771;28;20096;-75
2021/04/01 03:03:44;;;;;;;6.72;4.13;;;12.30;53.90;;;;;;5072378;28;20439;-75
2021/04/01 03:06:10;;;;;;;6.93;3.35;;;12.30;53.80;;;;;;5073116;28;20072;-75
2021/04/01 03:08:36;;;;;;;7.07;3.92;;;12.20;53.70;;;;;;5072610;28;20025;-75
2021/04/01 03:11:02;;;;;;;9.57;3.85;;;12.20;53.70;;;;;;5060219;28;20394;-75
2021/04/01 03:13:28;;;;;;;6.72;3.85;;;12.20;53.90;;;;;;5056582;28;20041;-75
2021/04/01 03:15:54;;;;;;;12.05;3.90;;;12.20;54.40;;;;;;5056555;28;20021;-75
2021/04/01 03:18:21;;;;;;;10.40;4.03;;;12.20;53.80;;;;;;5069847;28;20466;-75
2021/04/01 03:20:48;;;;;;;6.65;4.30;;;12.20;53.90;;;;;;5076550;28;20028;-75
2021/04/01 03:23:14;;;;;;;8.48;4.28;;;12.20;54.00;;;;;;5070808;28;20036;-75
2021/04/01 03:25:40;;;;;;;20.90;4.53;;;12.20;54.10;;;;;;5056226;28;20102;-75
2021/04/01 03:28:06;;;;;;;8.35;4.05;;;12.10;53.90;;;;;;5055121;28;20053;-75
2021/04/01 03:30:33;;;;;;;10.90;4.63;;;12.10;53.90;;;;;;5056186;28;20017;-74
2021/04/01 03:32:59;;;;;;;8.05;4.30;;;12.10;54.10;;;;;;5055000;28;20028;-76
2021/04/01 03:35:24;;;;;;;9.45;4.28;;;12.10;54.30;;;;;;5056191;28;20382;-75
2021/04/01 03:37:57;;;;;;;7.93;3.88;;;12.10;54.20;;;;;;5056159;28;20020;-75
2021/04/01 03:40:24;;;;;;;7.13;3.75;;;12.10;54.20;;;;;;5056043;28;20017;-75
2021/04/01 03:42:50;;;;;;;10.43;4.88;;;12.10;54.10;;;;;;5056097;28;20378;-75
2021/04/01 03:45:17;;;;;;;12.77;3.90;;;12.10;54.50;;;;;;5056045;28;20087;-75
2021/04/01 03:47:44;;;;;;;14.95;5.95;;;12.10;54.50;;;;;;5054535;28;20078;-75
2021/04/01 03:50:12;;;;;;;7.30;4.65;;;12.00;55.00;;;;;;5055703;28;20041;-75
2021/04/01 03:52:38;;;;;;;8.32;5.20;;;12.00;55.00;;;;;;5056617;28;20037;-75
2021/04/01 03:55:52;;;;;;;7.15;4.63;;;12.00;55.00;;;;;;5058268;28;20407;-75
2021/04/01 03:57:58;;;;;;;7.65;4.18;;;12.00;55.00;;;;;;5062337;28;20041;-75
2021/04/01 04:00:27;;;;;;;12.98;4.18;;;12.00;54.80;;;;;;5054429;28;20033;-75
2021/04/01 04:15:31;;;;;;;8.00;4.25;;;11.90;55.20;;;;;;5055702;28;20025;-75
2021/04/01 04:17:57;;;;;;;9.20;4.65;;;11.80;55.20;;;;;;5056517;28;20017;-75
2021/04/01 04:20:23;;;;;;;12.75;4.57;;;11.80;55.20;;;;;;5055099;28;20036;-75
2021/04/01 04:22:50;;;;;;;7.07;4.55;;;11.80;55.30;;;;;;5055156;28;20132;-75
2021/04/01 04:25:17;;;;;;;7.75;4.35;;;11.80;55.40;;;;;;5075210;28;20424;-75
2021/04/01 04:30:09;;;;;;;8.48;4.38;;;11.80;55.60;;;;;;5055085;28;20021;-75
2021/04/01 04:32:36;;;;;;;7.75;4.70;;;11.70;55.40;;;;;;5053852;28;20167;-75
2021/04/01 04:35:03;;;;;;;6.30;4.28;;;11.70;55.40;;;;;;5053804;28;20043;-75
2021/04/01 04:37:29;;;;;;;6.25;4.13;;;11.70;55.40;;;;;;5054849;28;20033;-75
2021/04/01 04:39:54;;;;;;;11.95;4.97;;;11.70;55.30;;;;;;5055038;28;20363;-75
2021/04/01 04:42:20;;;;;;;7.97;4.38;;;11.60;55.50;;;;;;5055095;28;20040;-75
2021/04/01 04:44:46;;;;;;;10.98;4.18;;;11.70;55.60;;;;;;5053688;28;20021;-75
2021/04/01 04:47:12;;;;;;;9.48;4.40;;;11.60;55.60;;;;;;5054807;28;20497;-75
2021/04/01 04:49:38;;;;;;;8.80;4.50;;;11.60;55.60;;;;;;5054817;28;20056;-75
2021/04/01 04:52:04;;;;;;;7.70;4.90;;;11.60;55.70;;;;;;5053085;28;20052;-75
2021/04/01 04:54:31;;;;;;;10.15;4.57;;;11.60;55.80;;;;;;5053523;28;20121;-75
2021/04/01 04:57:00;;;;;;;9.80;4.63;;;11.60;55.90;;;;;;5054828;28;20049;-75
2021/04/01 05:04:45;;;;;;;11.93;5.70;;;11.60;56.50;;;;;;5071703;28;20039;-75
2021/04/01 05:07:11;;;;;;;15.20;4.88;;;11.60;56.80;;;;;;5064212;28;20376;-74
2021/04/01 05:09:37;;;;;;;8.00;4.47;;;11.60;56.70;;;;;;5054390;28;20092;-75
2021/04/01 05:12:04;;;;;;;7.47;4.32;;;11.60;56.60;;;;;;5054578;28;20527;-75
2021/04/01 05:14:29;;;;;;;12.77;6.43;;;11.60;56.70;;;;;;5054319;28;20036;-75
2021/04/01 05:16:55;;;;;;;12.50;5.38;;;11.60;56.80;;;;;;5054258;28;20471;-74
2021/04/01 05:19:22;;;;;;;9.48;4.97;;;11.60;57.00;;;;;;5054239;28;20107;-75
2021/04/01 05:24:37;;;;;;;9.18;4.68;;;11.70;57.10;;;;;;5054431;28;20082;-75
2021/04/01 05:27:09;;;;;;;9.57;5.38;;;11.70;57.00;;;;;;5054501;28;20021;-75
2021/04/01 05:29:39;;;;;;;12.30;5.82;;;11.70;57.00;;;;;;5073956;28;20382;-75
2021/04/01 05:32:06;;;;;;;13.43;5.15;;;11.70;57.00;;;;;;5057973;28;20017;-75
2021/04/01 05:34:33;;;;;;;16.17;5.80;;;11.70;56.90;;;;;;5052604;28;20025;-75
2021/04/01 05:37:00;;;;;;;10.85;4.93;;;11.80;57.20;;;;;;5062396;28;20104;-75
2021/04/01 05:39:33;;;;;;;8.55;4.30;;;11.80;57.20;;;;;;5073890;28;20023;-75
2021/04/01 05:42:00;;;;;;;8.82;4.88;;;11.90;57.10;;;;;;5073932;28;20111;-75
2021/04/01 06:00:15;;;;;;;12.45;6.15;;;12.20;57.00;;;;;;5053506;28;20028;-74
2021/04/01 06:05:46;;;;;;;10.13;5.30;;;12.30;57.10;;;;;;5053226;28;20056;-75
2021/04/01 06:08:18;;;;;;;16.67;5.47;;;12.30;56.80;;;;;;5052031;28;20039;-75
2021/04/01 06:10:45;;;;;;;13.82;4.72;;;12.40;56.70;;;;;;5058146;28;20083;-75
2021/04/01 06:13:14;;;;;;;7.72;4.50;;;12.40;56.50;;;;;;5073340;28;20024;-75
2021/04/01 06:15:45;;;;;;;6.90;3.85;;;12.40;56.40;;;;;;5072165;28;20024;-75
2021/04/01 06:18:13;;;;;;;7.95;4.60;;;12.50;56.40;;;;;;5052103;28;20040;-75
2021/04/01 06:20:42;;;;;;;11.48;4.90;;;12.50;56.50;;;;;;5066991;28;20028;-75
2021/04/01 06:23:27;;;;;;;8.05;4.00;;;12.60;56.70;;;;;;5072757;28;20029;-76
2021/04/01 06:25:58;;;;;;;12.85;5.05;;;12.60;56.60;;;;;;5073107;28;20092;-75
2021/04/01 06:28:42;;;;;;;13.30;5.35;;;12.70;56.60;;;;;;5073063;28;20067;-75
2021/04/01 06:31:09;;;;;;;8.73;4.97;;;12.70;56.50;;;;;;5054569;28;20048;-75
2021/04/01 06:34:04;;;;;;;13.23;6.20;;;12.80;56.30;;;;;;5063948;28;20446;-76
2021/04/01 06:36:33;;;;;;;10.60;5.25;;;12.80;56.30;;;;;;5053197;28;20037;-76
2021/04/01 06:38:59;;;;;;;12.48;5.28;;;12.90;56.20;;;;;;5059776;28;20028;-76
2021/04/01 06:41:27;;;;;;;11.65;5.00;;;12.90;56.10;;;;;;5066931;28;20075;-76
2021/04/01 06:43:56;;;;;;;9.73;4.50;;;12.90;56.00;;;;;;5060720;28;20049;-75
2021/04/01 06:46:26;;;;;;;17.17;6.10;;;13.00;56.00;;;;;;5072810;28;20024;-75
2021/04/01 06:52:02;;;;;;;7.97;4.88;;;13.00;56.00;;;;;;5055364;28;20036;-75
2021/04/01 06:57:27;;;;;;;18.67;6.05;;;13.20;56.00;;;;;;5052503;28;20022;-75
2021/04/01 07:00:11;;;;;;;;;;;13.30;56.00;;;;;;5053203;28;20036;-76
2021/04/01 07:02:43;;;;;;;16.08;6.00;;;13.40;56.20;;;;;;5052736;28;19905;-76
2021/04/01 07:05:20;;;;;;;14.40;5.30;;;13.40;55.70;;;;;;5063280;28;20025;-75
2021/04/01 07:08:02;;;;;;;13.98;6.72;;;13.50;55.70;;;;;;5060965;28;20441;-76
2021/04/01 07:10:51;;;;;;;11.70;6.25;;;13.60;55.60;;;;;;5072400;28;20032;-75
2021/04/01 07:13:23;;;;;;;12.05;6.30;;;13.70;55.50;;;;;;5057944;28;20115;-75
2021/04/01 07:15:52;;;;;;;9.52;5.72;;;13.80;55.40;;;;;;5071716;28;20020;-75
2021/04/01 07:34:46;;;;;;;11.27;5.95;;;14.20;54.10;;;;;;5070372;28;20035;-76
2021/04/01 07:48:50;;;;;;;11.48;5.90;;;14.60;54.00;;;;;;5052296;28;20035;-77
2021/04/01 07:54:11;;;;;;;10.40;5.70;;;14.80;53.80;;;;;;5053276;28;20040;-76
2021/04/01 07:57:07;;;;;;;6.55;4.70;;;14.90;53.70;;;;;;5055675;28;20017;-77
2021/04/01 07:59:38;;;;;;;10.85;5.32;;;15.00;53.70;;;;;;5055447;28;20048;-77
2021/04/01 08:02:28;;;;;;;10.98;5.60;;;15.20;53.50;;;;;;5054643;28;20393;-77
2021/04/01 08:04:58;;;;;;;13.18;5.63;;;15.30;53.20;;;;;;5055454;28;20488;-76
2021/04/01 08:07:29;;;;;;;19.02;6.35;;;15.40;52.90;;;;;;5055455;28;20017;-76
2021/04/01 08:10:02;;;;;;;14.98;6.20;;;15.50;52.50;;;;;;5055433;28;20320;-76
2021/04/01 08:12:33;;;;;;;11.05;5.93;;;15.50;52.30;;;;;;5061022;28;20569;-76
2021/04/01 08:15:05;;;;;;;15.10;5.45;;;15.60;52.10;;;;;;5075319;28;20032;-76
2021/04/01 08:17:44;;;;;;;9.43;5.55;;;15.70;52.00;;;;;;5075272;28;20393;-76
2021/04/01 08:20:21;;;;;;;13.10;6.30;;;15.80;52.10;;;;;;5060876;28;20063;-76
2021/04/01 08:23:03;;;;;;;8.82;5.30;;;15.90;51.70;;;;;;5055255;28;20031;-76
2021/04/01 08:25:36;;;;;;;9.00;5.22;;;16.00;51.60;;;;;;5053807;28;20028;-77
2021/04/01 08:28:18;;;;;;;15.32;5.90;;;16.10;51.50;;;;;;5055093;28;20382;-76
2021/04/01 08:36:01;;;;;;;12.57;6.63;;;16.50;51.10;;;;;;5058838;28;20032;-76
2021/04/01 08:38:28;;;;;;;17.80;7.10;;;16.60;50.60;;;;;;5067311;28;20024;-76
2021/04/01 08:41:02;;;;;;;12.07;6.43;;;16.80;50.50;;;;;;5074847;28;20095;-76
2021/04/01 08:44:03;;;;;;;10.68;6.63;;;16.90;50.20;;;;;;5054596;28;20072;-76
2021/04/01 08:46:48;;;;;;;17.00;7.07;;;17.10;50.10;;;;;;5053440;28;20029;-76
2021/04/01 08:49:16;;;;;;;;;;;17.30;49.80;;;;;;5055040;28;20382;-77
2021/04/01 08:52:03;;;;;;;14.13;6.57;;;17.40;50.50;;;;;;5054369;28;19952;-78
2021/04/01 08:54:57;;;;;;;18.70;6.95;;;17.60;48.80;;;;;;5064930;28;20024;-76
2021/04/01 08:58:03;;;;;;;20.70;8.30;;;17.70;47.90;;;;;;5073313;28;20478;-76
2021/04/01 09:00:32;;;;;;;19.08;8.38;;;17.90;47.00;;;;;;5073219;28;20402;-76
2021/04/01 09:02:59;;;;;;;11.52;7.47;;;18.00;46.10;;;;;;5073055;28;20115;-76
2021/04/01 09:05:25;;;;;;;21.77;8.57;;;18.10;46.00;;;;;;5058609;28;20053;-76
2021/04/01 09:08:00;;;;;;;15.57;7.63;;;18.30;45.10;;;;;;5063122;28;20108;-76
2021/04/01 09:10:32;;;;;;;15.68;7.15;;;18.40;44.40;;;;;;5073141;28;20028;-76
2021/04/01 09:13:06;;;;;;;16.30;7.07;;;18.50;44.70;;;;;;5057763;28;20517;-76
2021/04/01 09:15:50;;;;;;;18.15;7.50;;;18.70;44.30;;;;;;5053122;28;20033;-75
2021/04/01 09:18:24;;;;;;;12.23;6.72;;;18.80;43.60;;;;;;5055029;28;20495;-76
2021/04/01 09:20:52;;;;;;;12.18;6.05;;;18.90;43.70;;;;;;5054187;28;20054;-76
2021/04/01 09:23:21;;;;;;;10.00;6.10;;;19.10;43.60;;;;;;5066031;28;20028;-76
2021/04/01 09:25:49;;;;;;;23.33;6.72;;;19.20;43.10;;;;;;5068495;28;20466;-75
2021/04/01 09:28:15;;;;;;;17.95;6.57;;;19.20;42.30;;;;;;5055514;28;20028;-76
2021/04/01 09:30:42;;;;;;;14.60;6.97;;;19.30;41.80;;;;;;5061231;28;20025;-76
2021/04/01 09:33:29;;;;;;;14.10;7.22;;;19.50;41.70;;;;;;5053992;28;20021;-77
2021/04/01 09:36:09;;;;;;;13.43;5.90;;;19.50;40.70;;;;;;5053759;28;20387;-76
2021/04/01 09:38:39;;;;;;;18.10;6.20;;;19.60;41.10;;;;;;5054264;28;20036;-76
2021/04/01 09:41:06;;;;;;;14.43;5.93;;;19.70;41.30;;;;;;5065135;28;20379;-76
2021/04/01 09:43:32;;;;;;;15.88;6.35;;;19.80;40.60;;;;;;5052380;28;20159;-76
2021/04/01 09:46:10;;;;;;;18.98;6.18;;;19.90;39.70;;;;;;5065912;28;20107;-76
2021/04/01 09:48:41;;;;;;;13.43;5.70;;;19.90;39.50;;;;;;5065017;28;20029;-76
2021/04/01 09:51:19;;;;;;;14.00;6.50;;;20.00;39.80;;;;;;5066281;28;20049;-77
2021/04/01 09:53:54;;;;;;;13.50;6.43;;;20.10;39.30;;;;;;5073485;28;20150;-76
2021/04/01 09:56:31;;;;;;;14.15;5.75;;;20.20;39.30;;;;;;5073562;28;20044;-76
2021/04/01 09:58:58;;;;;;;18.92;7.07;;;20.30;39.30;;;;;;5073210;28;20032;-76
2021/04/01 10:01:38;;;;;;;12.15;6.40;;;20.40;38.70;;;;;;5072021;28;20033;-76
2021/04/01 10:04:17;;;;;;;20.10;7.03;;;20.40;38.80;;;;;;5073226;28;20029;-76
2021/04/01 10:06:49;;;;;;;16.45;7.05;;;20.50;38.00;;;;;;5068268;28;20021;-76
2021/04/01 10:09:19;;;;;;;14.50;6.95;;;20.60;37.90;;;;;;5069527;28;20070;-76
2021/04/01 10:11:53;;;;;;;26.23;8.90;;;20.70;38.50;;;;;;5072446;28;20028;-76
2021/04/01 10:14:19;;;;;;;16.15;7.78;;;20.80;38.10;;;;;;5053411;28;20108;-76
2021/04/01 10:17:05;;;;;;;17.05;7.32;;;20.80;38.00;;;;;;5057780;28;20047;-76
2021/04/01 10:19:57;;;;;;;16.17;7.47;;;20.90;38.40;;;;;;5072060;28;20064;-76
2021/04/01 10:22:28;;;;;;;15.02;7.63;;;21.00;38.60;;;;;;5072932;28;20032;-76
2021/04/01 10:28:08;;;;;;;21.73;7.95;;;21.20;38.10;;;;;;5053602;28;20013;-75
2021/04/01 10:30:33;;;;;;;21.13;8.02;;;21.30;38.10;;;;;;5083007;28;20029;-76
2021/04/01 10:33:20;;;;;;;16.60;8.40;;;21.40;37.90;;;;;;5060059;28;20112;-77
2021/04/01 10:35:50;;;;;;;29.65;10.02;;;21.50;36.70;;;;;;5056678;28;20009;-77
2021/04/01 10:38:18;;;;;;;19.67;8.82;;;21.60;36.60;;;;;;5051928;28;20467;-77
2021/04/01 10:40:51;;;;;;;26.88;9.77;;;21.70;36.60;;;;;;5052406;28;20027;-77
2021/04/01 10:43:20;;;;;;;24.73;10.13;;;21.70;35.60;;;;;;5051268;28;20021;-77
2021/04/01 10:45:46;;;;;;;27.10;10.85;;;21.80;35.80;;;;;;5051435;28;20025;-77
2021/04/01 10:48:36;;;;;;;26.80;10.55;;;21.90;34.40;;;;;;5051633;28;20048;-77
2021/04/01 10:51:07;;;;;;;26.20;10.85;;;21.90;34.90;;;;;;5052637;28;20090;-77
2021/04/01 10:53:40;;;;;;;24.80;10.27;;;22.00;34.10;;;;;;5052797;28;20056;-77
2021/04/01 10:56:08;;;;;;;22.08;10.82;;;22.10;33.80;;;;;;5052844;28;20057;-77
2021/04/01 10:58:35;;;;;;;19.00;10.02;;;22.20;33.90;;;;;;5052786;28;20083;-77
2021/04/01 11:01:04;;;;;;;31.58;10.43;;;22.20;33.60;;;;;;5052692;28;20083;-77
2021/04/01 11:03:39;;;;;;;31.90;11.75;;;22.30;33.90;;;;;;5052563;28;20017;-77
2021/04/01 11:06:06;;;;;;;23.58;10.30;;;22.40;32.90;;;;;;5052748;28;20024;-77
2021/04/01 11:08:41;;;;;;;30.70;11.48;;;22.50;33.20;;;;;;5052669;28;20429;-77
2021/04/01 11:11:08;;;;;;;22.70;10.18;;;22.60;32.00;;;;;;5051530;28;20385;-77
2021/04/01 11:13:36;;;;;;;23.70;10.48;;;22.70;32.00;;;;;;5052673;28;20020;-77
2021/04/01 11:16:04;;;;;;;30.23;11.05;;;22.70;31.90;;;;;;5053601;28;20498;-77
2021/04/01 11:18:31;;;;;;;23.70;10.73;;;22.80;32.10;;;;;;5053389;28;20139;-76
2021/04/01 11:20:59;;;;;;;25.35;10.82;;;22.80;31.30;;;;;;5051471;28;20032;-77
2021/04/01 11:23:28;;;;;;;31.33;11.30;;;22.90;31.90;;;;;;5052554;28;20021;-77
2021/04/01 11:25:57;;;;;;;25.02;10.10;;;23.00;31.60;;;;;;5052622;28;20025;-77
2021/04/01 11:28:44;;;;;;;24.85;9.77;;;23.00;31.70;;;;;;5052358;28;20017;-77
2021/04/01 11:31:21;;;;;;;29.45;11.32;;;23.10;32.20;;;;;;5056430;28;20020;-77
2021/04/01 11:33:47;;;;;;;26.35;11.05;;;23.10;31.40;;;;;;5056348;28;20028;-77
2021/04/01 11:36:17;;;;;;;28.50;11.73;;;23.20;31.20;;;;;;5056248;28;20021;-77
2021/04/01 11:38:49;;;;;;;30.40;11.88;;;23.20;31.20;;;;;;5056435;28;20017;-77
2021/04/01 11:41:18;;;;;;;28.92;11.00;;;23.20;30.80;;;;;;5056179;28;20381;-77
2021/04/01 11:43:48;;;;;;;34.63;13.02;;;23.30;31.20;;;;;;5056030;28;20134;-77
2021/04/01 11:46:20;;;;;;;30.50;12.20;;;23.40;30.90;;;;;;5054794;28;20044;-77
2021/04/01 11:48:48;;;;;;;25.73;11.45;;;23.40;30.90;;;;;;5055981;28;20095;-77
2021/04/01 11:51:23;;;;;;;23.55;11.23;;;23.50;30.60;;;;;;5054451;28;20047;-77
2021/04/01 11:53:49;;;;;;;25.77;11.15;;;23.50;30.80;;;;;;5054421;28;20112;-77
2021/04/01 11:56:15;;;;;;;27.30;11.48;;;23.50;31.40;;;;;;5054410;28;20031;-77
2021/04/01 11:58:42;;;;;;;28.70;13.77;;;23.60;31.80;;;;;;5054954;28;20056;-77
2021/04/01 12:01:14;;;;;;;42.72;13.40;;;23.70;30.70;;;;;;5054313;28;20029;-77
2021/04/01 12:06:11;;;;;;;28.33;12.65;;;23.80;30.10;;;;;;5055821;28;20019;-77
2021/04/01 12:08:39;;;;;;;27.38;13.07;;;23.80;31.10;;;;;;5054207;28;20025;-77
2021/04/01 12:11:05;;;;;;;29.27;13.70;;;23.90;29.80;;;;;;5055572;28;20467;-77
2021/04/01 12:13:31;;;;;;;27.45;13.40;;;23.90;29.70;;;;;;5054221;28;20036;-77
2021/04/01 12:15:57;;;;;;;23.08;11.85;;;23.90;29.80;;;;;;5055142;28;20017;-77
2021/04/01 12:18:24;;;;;;;143.52;18.23;;;24.00;29.90;;;;;;5054035;28;20056;-77
2021/04/01 12:20:50;;;;;;;32.70;11.93;;;24.00;29.00;;;;;;5055293;28;20049;-77
2021/04/01 12:23:20;;;;;;;31.02;12.10;;;24.10;29.00;;;;;;5053903;28;20106;-77
2021/04/01 12:25:47;;;;;;;26.75;12.93;;;24.20;29.20;;;;;;5055107;28;20017;-77
2021/04/01 12:28:21;;;;;;;35.22;13.13;;;24.20;29.20;;;;;;5055136;28;20036;-77
2021/04/01 12:30:49;;;;;;;24.90;11.27;;;24.30;28.90;;;;;;5055106;28;20028;-77
2021/04/01 12:33:20;;;;;;;22.25;11.65;;;24.40;29.20;;;;;;5055036;28;20033;-77
2021/04/01 12:35:58;;;;;;;24.83;12.00;;;24.40;28.30;;;;;;5069450;28;20123;-77
2021/04/01 12:38:30;;;;;;;19.95;10.90;;;24.50;28.40;;;;;;5073668;28;20024;-77
2021/04/01 12:40:58;;;;;;;21.52;10.02;;;24.50;27.50;;;;;;5073853;28;20021;-77
2021/04/01 12:43:40;;;;;;;23.23;10.10;;;24.60;28.30;;;;;;5073172;28;20496;-77
2021/04/01 12:46:06;;;;;;;47.72;11.05;;;24.70;27.90;;;;;;5073561;28;20025;-77
2021/04/01 12:48:41;;;;;;;20.65;8.80;;;24.70;27.90;;;;;;5074625;28;20495;-77
2021/04/01 12:51:09;;;;;;;18.10;9.20;;;24.80;27.70;;;;;;5072758;28;20055;-78
2021/04/01 12:53:35;;;;;;;19.58;8.27;;;24.80;26.80;;;;;;5073373;28;20021;-77
2021/04/01 12:56:23;;;;;;;19.30;9.02;;;24.90;27.20;;;;;;5065543;28;20061;-76
2021/04/01 13:03:48;;;;;;;23.75;8.27;;;25.00;25.90;;;;;;5055953;28;20021;-77
2021/04/01 13:06:27;;;;;;;17.60;7.93;;;25.00;26.10;;;;;;5059874;28;20025;-78
2021/04/01 13:08:58;;;;;;;18.88;7.90;;;25.00;26.30;;;;;;5073971;28;20031;-77
2021/04/01 13:11:25;;;;;;;11.48;6.45;;;25.10;26.60;;;;;;5071198;28;20017;-77
2021/04/01 13:13:52;;;;;;;17.02;7.53;;;25.20;25.70;;;;;;5072452;28;20067;-77
2021/04/01 13:16:19;;;;;;;18.83;7.45;;;25.30;25.70;;;;;;5072544;28;20051;-73
2021/04/01 13:18:46;;;;;;;16.35;7.38;;;25.30;25.50;;;;;;5072960;28;20393;-75
2021/04/01 13:26:31;;;;;;;14.30;6.97;;;25.60;25.70;;;;;;5073493;28;20489;-74
2021/04/01 13:28:58;;;;;;;12.77;5.95;;;25.70;25.90;;;;;;5072848;28;20449;-75
2021/04/01 13:31:36;;;;;;;13.15;7.55;;;25.80;25.40;;;;;;5072977;28;20095;-74
2021/04/01 13:39:22;;;;;;;15.55;6.63;;;26.10;25.00;;;;;;5073070;28;20111;-75
2021/04/01 13:44:17;;;;;;;16.60;7.55;;;26.30;24.70;;;;;;5072898;28;20029;-74
2021/04/01 13:46:43;;;;;;;17.50;7.40;;;26.50;24.20;;;;;;5071715;28;20024;-74
2021/04/01 13:49:16;;;;;;;13.30;6.72;;;26.50;24.00;;;;;;5072771;28;20043;-74
2021/04/01 13:51:42;;;;;;;18.50;7.80;;;26.60;24.10;;;;;;5071937;28;20119;-74
2021/04/01 13:57:26;;;;;;;;;;;26.80;24.20;;;;;;5071975;28;20054;-74
2021/04/01 14:00:06;;;;;;;22.67;8.15;;;26.90;25.60;;;;;;5053256;28;20385;-74
2021/04/01 14:10:53;;;;;;;18.10;8.25;;;27.10;23.90;;;;;;5053227;28;20035;-74
2021/04/01 14:13:22;;;;;;;18.70;8.10;;;27.20;24.10;;;;;;5051958;28;20035;-74
2021/04/01 14:15:49;;;;;;;14.30;6.10;;;27.30;24.10;;;;;;5053254;28;20021;-74
2021/04/01 14:18:17;;;;;;;14.88;7.55;;;27.50;24.40;;;;;;5053071;28;20023;-74
2021/04/01 14:20:43;;;;;;;15.48;7.25;;;27.60;23.50;;;;;;5051832;28;20019;-74
2021/04/01 14:23:14;;;;;;;20.10;7.03;;;27.80;23.20;;;;;;5052505;28;20044;-74
2021/04/01 14:25:44;;;;;;;43.55;8.57;;;27.90;23.20;;;;;;5052903;28;20025;-74
2021/04/01 14:28:12;;;;;;;17.02;6.95;;;28.10;22.50;;;;;;5052847;28;20017;-74
2021/04/01 14:30:38;;;;;;;11.63;6.05;;;28.10;22.60;;;;;;5052860;28;20471;-74
2021/04/01 14:33:05;;;;;;;17.45;5.68;;;28.30;22.80;;;;;;5052593;28;20467;-75
2021/04/01 14:35:32;;;;;;;11.63;4.53;;;28.60;22.40;;;;;;5058705;28;20037;-74
2021/04/01 14:38:01;;;;;;;13.52;5.32;;;28.80;21.90;;;;;;5051976;28;20025;-75
2021/04/01 14:40:37;;;;;;;13.90;5.63;;;29.00;20.60;;;;;;5051192;28;20031;-74
2021/04/01 14:43:12;;;;;;;9.10;4.53;;;29.10;19.70;;;;;;5051093;28;20025;-74
2021/04/01 14:45:38;;;;;;;18.02;6.10;;;29.30;20.40;;;;;;5052422;28;20070;-74
2021/04/01 14:48:05;;;;;;;10.85;5.15;;;29.30;18.70;;;;;;5051280;28;20024;-74
2021/04/01 14:50:31;;;;;;;8.55;4.95;;;29.20;19.40;;;;;;5051136;28;20056;-74